sensor_id;sensor_type;location;lat;lon;timestamp;temperature;humidity
51661;DHT22;37741;49.748;8.490;2022-09-09T00:04:30;20.50;65.00
51661;DHT22;37741;49.748;8.490;2022-09-09T00:07:04;20.50;65.10
51661;DHT22;37741;49.748;8.490;2022-09-09T00:09:40;20.50;65.30
51661;DHT22;37741;49.748;8.490;2022-09-09T00:15:20;20.40;65.30
51661;DHT22;37741;49.748;8.490;2022-09-09T00:17:52;20.40;65.40
51661;DHT22;37741;49.748;8.490;2022-09-09T00:20:38;20.40;65.50
51661;DHT22;37741;49.748;8.490;2022-09-09T00:23:12;20.40;65.50
51661;DHT22;37741;49.748;8.490;2022-09-09T00:25:42;20.30;65.50
51661;DHT22;37741;49.748;8.490;2022-09-09T00:28:18;20.30;65.60
51661;DHT22;37741;49.748;8.490;2022-09-09T00:30:45;20.30;65.60
51661;DHT22;37741;49.748;8.490;2022-09-09T00:33:16;20.30;65.70
51661;DHT22;37741;49.748;8.490;2022-09-09T00:35:51;20.30;65.80
51661;DHT22;37741;49.748;8.490;2022-09-09T00:38:33;20.20;65.80
51661;DHT22;37741;49.748;8.490;2022-09-09T00:43:36;20.20;66.00
51661;DHT22;37741;49.748;8.490;2022-09-09T00:46:38;20.20;66.00
51661;DHT22;37741;49.748;8.490;2022-09-09T00:49:25;20.20;66.10
51661;DHT22;37741;49.748;8.490;2022-09-09T00:57:28;20.20;66.30
51661;DHT22;37741;49.748;8.490;2022-09-09T01:14:41;20.00;66.60
51661;DHT22;37741;49.748;8.490;2022-09-09T01:17:15;20.00;66.70
51661;DHT22;37741;49.748;8.490;2022-09-09T01:22:36;20.00;66.80
51661;DHT22;37741;49.748;8.490;2022-09-09T01:25:56;19.90;66.80
51661;DHT22;37741;49.748;8.490;2022-09-09T01:28:19;19.90;66.80
51661;DHT22;37741;49.748;8.490;2022-09-09T01:30:47;19.90;66.90
51661;DHT22;37741;49.748;8.490;2022-09-09T01:33:15;19.90;67.00
51661;DHT22;37741;49.748;8.490;2022-09-09T01:35:52;19.90;67.10
51661;DHT22;37741;49.748;8.490;2022-09-09T01:38:22;19.90;67.10
51661;DHT22;37741;49.748;8.490;2022-09-09T01:40:49;19.90;67.10
51661;DHT22;37741;49.748;8.490;2022-09-09T01:43:21;19.90;67.30
51661;DHT22;37741;49.748;8.490;2022-09-09T01:45:49;19.90;67.30
51661;DHT22;37741;49.748;8.490;2022-09-09T01:48:16;19.80;67.30
51661;DHT22;37741;49.748;8.490;2022-09-09T01:50:43;19.80;67.30
51661;DHT22;37741;49.748;8.490;2022-09-09T01:53:09;19.90;67.30
51661;DHT22;37741;49.748;8.490;2022-09-09T01:55:40;19.90;67.20
51661;DHT22;37741;49.748;8.490;2022-09-09T02:00:32;19.90;67.20
51661;DHT22;37741;49.748;8.490;2022-09-09T02:03:24;19.90;67.20
51661;DHT22;37741;49.748;8.490;2022-09-09T02:08:47;19.90;67.20
51661;DHT22;37741;49.748;8.490;2022-09-09T02:11:19;19.90;67.10
51661;DHT22;37741;49.748;8.490;2022-09-09T02:13:47;19.90;67.20
51661;DHT22;37741;49.748;8.490;2022-09-09T02:16:15;19.90;67.20
51661;DHT22;37741;49.748;8.490;2022-09-09T02:19:29;19.90;67.20
51661;DHT22;37741;49.748;8.490;2022-09-09T02:21:55;19.90;67.20
51661;DHT22;37741;49.748;8.490;2022-09-09T02:24:21;19.80;67.20
51661;DHT22;37741;49.748;8.490;2022-09-09T02:26:50;19.80;67.20
51661;DHT22;37741;49.748;8.490;2022-09-09T02:29:30;19.90;67.30
51661;DHT22;37741;49.748;8.490;2022-09-09T02:32:00;19.80;67.20
51661;DHT22;37741;49.748;8.490;2022-09-09T02:34:28;19.80;67.30
51661;DHT22;37741;49.748;8.490;2022-09-09T02:36:57;19.80;67.20
51661;DHT22;37741;49.748;8.490;2022-09-09T02:39:25;19.80;67.30
51661;DHT22;37741;49.748;8.490;2022-09-09T02:41:51;19.80;67.40
51661;DHT22;37741;49.748;8.490;2022-09-09T02:44:18;19.80;67.40
51661;DHT22;37741;49.748;8.490;2022-09-09T02:53:06;19.70;67.50
51661;DHT22;37741;49.748;8.490;2022-09-09T02:56:02;19.70;67.60
51661;DHT22;37741;49.748;8.490;2022-09-09T02:58:29;19.70;67.60
51661;DHT22;37741;49.748;8.490;2022-09-09T03:00:55;19.70;67.80
51661;DHT22;37741;49.748;8.490;2022-09-09T03:03:23;19.70;67.70
51661;DHT22;37741;49.748;8.490;2022-09-09T03:05:49;19.60;67.70
51661;DHT22;37741;49.748;8.490;2022-09-09T03:08:15;19.70;67.70
51661;DHT22;37741;49.748;8.490;2022-09-09T03:10:41;19.60;67.60
51661;DHT22;37741;49.748;8.490;2022-09-09T03:13:07;19.60;67.70
51661;DHT22;37741;49.748;8.490;2022-09-09T03:15:33;19.60;67.70
51661;DHT22;37741;49.748;8.490;2022-09-09T03:17:59;19.60;67.80
51661;DHT22;37741;49.748;8.490;2022-09-09T03:20:27;19.60;67.90
51661;DHT22;37741;49.748;8.490;2022-09-09T03:22:54;19.60;67.90
51661;DHT22;37741;49.748;8.490;2022-09-09T03:25:20;19.50;67.90
51661;DHT22;37741;49.748;8.490;2022-09-09T03:27:46;19.50;68.00
51661;DHT22;37741;49.748;8.490;2022-09-09T03:30:11;19.50;68.20
51661;DHT22;37741;49.748;8.490;2022-09-09T03:32:37;19.50;68.20
51661;DHT22;37741;49.748;8.490;2022-09-09T03:35:03;19.40;68.30
51661;DHT22;37741;49.748;8.490;2022-09-09T03:37:29;19.40;68.40
51661;DHT22;37741;49.748;8.490;2022-09-09T03:39:55;19.40;68.50
51661;DHT22;37741;49.748;8.490;2022-09-09T03:42:21;19.40;68.60
51661;DHT22;37741;49.748;8.490;2022-09-09T03:44:47;19.40;68.60
51661;DHT22;37741;49.748;8.490;2022-09-09T03:47:18;19.30;68.60
51661;DHT22;37741;49.748;8.490;2022-09-09T03:49:44;19.30;68.70
51661;DHT22;37741;49.748;8.490;2022-09-09T03:52:09;19.30;68.80
51661;DHT22;37741;49.748;8.490;2022-09-09T03:54:35;19.30;68.90
51661;DHT22;37741;49.748;8.490;2022-09-09T03:57:01;19.30;69.00
51661;DHT22;37741;49.748;8.490;2022-09-09T03:59:26;19.30;69.00
51661;DHT22;37741;49.748;8.490;2022-09-09T04:01:52;19.20;69.00
51661;DHT22;37741;49.748;8.490;2022-09-09T04:04:18;19.20;69.10
51661;DHT22;37741;49.748;8.490;2022-09-09T04:06:45;19.20;69.20
51661;DHT22;37741;49.748;8.490;2022-09-09T04:09:11;19.20;69.20
51661;DHT22;37741;49.748;8.490;2022-09-09T04:11:37;19.20;69.20
51661;DHT22;37741;49.748;8.490;2022-09-09T04:14:02;19.20;69.30
51661;DHT22;37741;49.748;8.490;2022-09-09T04:16:28;19.10;69.30
51661;DHT22;37741;49.748;8.490;2022-09-09T04:18:54;19.10;69.40
51661;DHT22;37741;49.748;8.490;2022-09-09T04:21:21;19.10;69.40
51661;DHT22;37741;49.748;8.490;2022-09-09T04:23:47;19.10;69.50
51661;DHT22;37741;49.748;8.490;2022-09-09T04:26:12;19.10;69.50
51661;DHT22;37741;49.748;8.490;2022-09-09T04:28:38;19.10;69.60
51661;DHT22;37741;49.748;8.490;2022-09-09T04:31:07;19.10;69.50
51661;DHT22;37741;49.748;8.490;2022-09-09T04:33:34;19.10;70.30
51661;DHT22;37741;49.748;8.490;2022-09-09T04:36:00;19.00;70.40
51661;DHT22;37741;49.748;8.490;2022-09-09T04:38:26;19.00;70.40
51661;DHT22;37741;49.748;8.490;2022-09-09T04:40:52;19.00;70.30
51661;DHT22;37741;49.748;8.490;2022-09-09T04:43:19;19.00;70.30
51661;DHT22;37741;49.748;8.490;2022-09-09T04:45:50;19.00;70.40
51661;DHT22;37741;49.748;8.490;2022-09-09T04:48:16;18.90;70.30
51661;DHT22;37741;49.748;8.490;2022-09-09T04:50:42;18.90;70.30
51661;DHT22;37741;49.748;8.490;2022-09-09T04:53:08;18.90;70.40
51661;DHT22;37741;49.748;8.490;2022-09-09T04:55:34;18.90;70.40
51661;DHT22;37741;49.748;8.490;2022-09-09T04:58:08;18.90;70.40
51661;DHT22;37741;49.748;8.490;2022-09-09T05:00:34;18.90;70.40
51661;DHT22;37741;49.748;8.490;2022-09-09T05:03:04;18.90;70.40
51661;DHT22;37741;49.748;8.490;2022-09-09T05:05:31;18.90;71.10
51661;DHT22;37741;49.748;8.490;2022-09-09T05:08:04;18.80;70.40
51661;DHT22;37741;49.748;8.490;2022-09-09T05:10:31;18.80;70.40
51661;DHT22;37741;49.748;8.490;2022-09-09T05:12:56;18.80;70.50
51661;DHT22;37741;49.748;8.490;2022-09-09T05:15:22;18.80;70.60
51661;DHT22;37741;49.748;8.490;2022-09-09T05:17:48;18.80;70.60
51661;DHT22;37741;49.748;8.490;2022-09-09T05:20:13;18.80;70.60
51661;DHT22;37741;49.748;8.490;2022-09-09T05:22:39;18.80;70.60
51661;DHT22;37741;49.748;8.490;2022-09-09T05:25:06;18.70;70.60
51661;DHT22;37741;49.748;8.490;2022-09-09T05:27:33;18.70;70.60
51661;DHT22;37741;49.748;8.490;2022-09-09T05:29:59;18.70;70.70
51661;DHT22;37741;49.748;8.490;2022-09-09T05:32:25;18.70;70.70
51661;DHT22;37741;49.748;8.490;2022-09-09T05:34:51;18.80;70.80
51661;DHT22;37741;49.748;8.490;2022-09-09T05:37:18;18.80;70.80
51661;DHT22;37741;49.748;8.490;2022-09-09T05:39:44;18.70;70.80
51661;DHT22;37741;49.748;8.490;2022-09-09T05:42:09;18.70;70.90
51661;DHT22;37741;49.748;8.490;2022-09-09T05:44:35;18.70;70.90
51661;DHT22;37741;49.748;8.490;2022-09-09T05:47:01;18.70;70.90
51661;DHT22;37741;49.748;8.490;2022-09-09T05:49:27;18.70;70.90
51661;DHT22;37741;49.748;8.490;2022-09-09T05:51:53;18.60;70.90
51661;DHT22;37741;49.748;8.490;2022-09-09T05:54:19;18.70;71.00
51661;DHT22;37741;49.748;8.490;2022-09-09T05:56:44;18.70;71.00
51661;DHT22;37741;49.748;8.490;2022-09-09T05:59:13;18.60;70.90
51661;DHT22;37741;49.748;8.490;2022-09-09T06:01:40;18.60;70.90
51661;DHT22;37741;49.748;8.490;2022-09-09T06:04:05;18.60;71.00
51661;DHT22;37741;49.748;8.490;2022-09-09T06:06:35;18.60;71.00
51661;DHT22;37741;49.748;8.490;2022-09-09T06:09:03;18.60;71.10
51661;DHT22;37741;49.748;8.490;2022-09-09T06:11:32;18.60;71.10
51661;DHT22;37741;49.748;8.490;2022-09-09T06:13:58;18.60;71.00
51661;DHT22;37741;49.748;8.490;2022-09-09T06:16:26;18.60;71.10
51661;DHT22;37741;49.748;8.490;2022-09-09T06:18:53;18.60;71.00
51661;DHT22;37741;49.748;8.490;2022-09-09T06:21:27;18.60;71.00
51661;DHT22;37741;49.748;8.490;2022-09-09T06:23:53;18.60;71.10
51661;DHT22;37741;49.748;8.490;2022-09-09T06:26:23;18.60;70.90
51661;DHT22;37741;49.748;8.490;2022-09-09T06:28:52;18.70;71.00
51661;DHT22;37741;49.748;8.490;2022-09-09T06:31:22;18.70;71.00
51661;DHT22;37741;49.748;8.490;2022-09-09T06:33:49;18.70;70.90
51661;DHT22;37741;49.748;8.490;2022-09-09T06:36:24;18.70;71.00
51661;DHT22;37741;49.748;8.490;2022-09-09T06:38:50;18.80;71.00
51661;DHT22;37741;49.748;8.490;2022-09-09T06:41:18;18.80;70.80
51661;DHT22;37741;49.748;8.490;2022-09-09T06:43:44;18.80;70.70
51661;DHT22;37741;49.748;8.490;2022-09-09T06:46:12;18.90;70.80
51661;DHT22;37741;49.748;8.490;2022-09-09T06:48:40;18.90;70.70
51661;DHT22;37741;49.748;8.490;2022-09-09T06:51:18;18.90;70.70
51661;DHT22;37741;49.748;8.490;2022-09-09T06:53:46;18.90;70.60
51661;DHT22;37741;49.748;8.490;2022-09-09T06:56:26;18.90;70.70
51661;DHT22;37741;49.748;8.490;2022-09-09T06:58:55;18.90;70.70
51661;DHT22;37741;49.748;8.490;2022-09-09T07:01:26;18.90;70.80
51661;DHT22;37741;49.748;8.490;2022-09-09T07:03:55;19.00;70.90
51661;DHT22;37741;49.748;8.490;2022-09-09T07:06:26;19.00;70.90
51661;DHT22;37741;49.748;8.490;2022-09-09T07:08:56;18.90;70.80
51661;DHT22;37741;49.748;8.490;2022-09-09T07:11:28;18.90;70.70
51661;DHT22;37741;49.748;8.490;2022-09-09T07:13:54;19.00;70.80
51661;DHT22;37741;49.748;8.490;2022-09-09T07:16:21;19.00;70.80
51661;DHT22;37741;49.748;8.490;2022-09-09T07:18:50;19.00;70.90
51661;DHT22;37741;49.748;8.490;2022-09-09T07:21:16;19.00;70.80
51661;DHT22;37741;49.748;8.490;2022-09-09T07:23:42;19.00;70.80
51661;DHT22;37741;49.748;8.490;2022-09-09T07:26:14;19.00;70.90
51661;DHT22;37741;49.748;8.490;2022-09-09T07:28:40;19.00;70.90
51661;DHT22;37741;49.748;8.490;2022-09-09T07:31:08;19.00;71.10
51661;DHT22;37741;49.748;8.490;2022-09-09T07:33:38;19.00;71.10
51661;DHT22;37741;49.748;8.490;2022-09-09T07:36:20;19.10;71.20
51661;DHT22;37741;49.748;8.490;2022-09-09T07:38:52;19.00;71.00
51661;DHT22;37741;49.748;8.490;2022-09-09T07:41:22;19.00;71.00
51661;DHT22;37741;49.748;8.490;2022-09-09T07:43:50;19.10;71.00
51661;DHT22;37741;49.748;8.490;2022-09-09T07:46:18;19.10;70.90
51661;DHT22;37741;49.748;8.490;2022-09-09T07:48:48;19.10;70.80
51661;DHT22;37741;49.748;8.490;2022-09-09T07:51:24;19.10;70.80
51661;DHT22;37741;49.748;8.490;2022-09-09T07:53:59;19.10;70.80
51661;DHT22;37741;49.748;8.490;2022-09-09T07:56:29;19.10;70.70
51661;DHT22;37741;49.748;8.490;2022-09-09T07:58:55;19.10;70.60
51661;DHT22;37741;49.748;8.490;2022-09-09T08:01:30;19.20;70.60
51661;DHT22;37741;49.748;8.490;2022-09-09T08:03:59;19.20;70.50
51661;DHT22;37741;49.748;8.490;2022-09-09T08:06:27;19.20;70.50
51661;DHT22;37741;49.748;8.490;2022-09-09T08:08:54;19.20;70.40
51661;DHT22;37741;49.748;8.490;2022-09-09T08:11:21;19.20;70.50
51661;DHT22;37741;49.748;8.490;2022-09-09T08:13:49;19.20;70.60
51661;DHT22;37741;49.748;8.490;2022-09-09T08:16:18;19.10;70.40
51661;DHT22;37741;49.748;8.490;2022-09-09T08:18:44;19.20;70.60
51661;DHT22;37741;49.748;8.490;2022-09-09T08:21:13;19.20;70.60
51661;DHT22;37741;49.748;8.490;2022-09-09T08:23:41;19.20;70.80
51661;DHT22;37741;49.748;8.490;2022-09-09T08:26:12;19.20;70.90
51661;DHT22;37741;49.748;8.490;2022-09-09T08:28:39;19.20;70.80
51661;DHT22;37741;49.748;8.490;2022-09-09T08:31:13;19.20;71.40
51661;DHT22;37741;49.748;8.490;2022-09-09T08:33:41;19.20;70.80
51661;DHT22;37741;49.748;8.490;2022-09-09T08:36:10;19.20;70.80
51661;DHT22;37741;49.748;8.490;2022-09-09T08:38:37;19.20;70.80
51661;DHT22;37741;49.748;8.490;2022-09-09T08:41:28;19.20;70.80
51661;DHT22;37741;49.748;8.490;2022-09-09T08:44:06;19.30;70.80
51661;DHT22;37741;49.748;8.490;2022-09-09T08:46:55;19.30;70.70
51661;DHT22;37741;49.748;8.490;2022-09-09T08:52:32;19.30;70.40
51661;DHT22;37741;49.748;8.490;2022-09-09T08:58:12;19.40;70.60
51661;DHT22;37741;49.748;8.490;2022-09-09T09:11:04;19.40;70.80
51661;DHT22;37741;49.748;8.490;2022-09-09T09:13:47;19.40;70.70
51661;DHT22;37741;49.748;8.490;2022-09-09T09:18:47;19.50;70.80
51661;DHT22;37741;49.748;8.490;2022-09-09T09:21:24;19.50;70.70
51661;DHT22;37741;49.748;8.490;2022-09-09T09:23:58;19.50;70.80
51661;DHT22;37741;49.748;8.490;2022-09-09T09:26:34;19.50;70.70
51661;DHT22;37741;49.748;8.490;2022-09-09T09:29:11;19.50;70.90
51661;DHT22;37741;49.748;8.490;2022-09-09T09:31:37;19.60;71.00
51661;DHT22;37741;49.748;8.490;2022-09-09T09:34:03;19.60;71.00
51661;DHT22;37741;49.748;8.490;2022-09-09T09:36:41;19.60;71.20
51661;DHT22;37741;49.748;8.490;2022-09-09T09:39:10;19.60;71.10
51661;DHT22;37741;49.748;8.490;2022-09-09T09:41:41;19.60;71.20
51661;DHT22;37741;49.748;8.490;2022-09-09T09:44:27;19.60;71.10
51661;DHT22;37741;49.748;8.490;2022-09-09T09:47:15;19.70;71.20
51661;DHT22;37741;49.748;8.490;2022-09-09T09:50:03;19.70;70.90
51661;DHT22;37741;49.748;8.490;2022-09-09T09:52:31;19.70;70.80
51661;DHT22;37741;49.748;8.490;2022-09-09T09:54:58;19.70;70.90
51661;DHT22;37741;49.748;8.490;2022-09-09T09:57:29;19.70;70.90
51661;DHT22;37741;49.748;8.490;2022-09-09T10:00:18;19.80;70.90
51661;DHT22;37741;49.748;8.490;2022-09-09T10:02:45;19.80;70.80
51661;DHT22;37741;49.748;8.490;2022-09-09T10:05:19;19.80;70.80
51661;DHT22;37741;49.748;8.490;2022-09-09T10:07:45;19.80;70.80
51661;DHT22;37741;49.748;8.490;2022-09-09T10:10:23;19.80;70.60
51661;DHT22;37741;49.748;8.490;2022-09-09T10:13:02;19.80;71.30
51661;DHT22;37741;49.748;8.490;2022-09-09T10:15:41;19.90;70.90
51661;DHT22;37741;49.748;8.490;2022-09-09T10:29:28;20.10;70.00
51661;DHT22;37741;49.748;8.490;2022-09-09T10:35:09;20.10;70.00
51661;DHT22;37741;49.748;8.490;2022-09-09T10:38:11;20.10;70.00
51661;DHT22;37741;49.748;8.490;2022-09-09T10:49:10;20.20;69.50
51661;DHT22;37741;49.748;8.490;2022-09-09T10:56:44;20.30;69.20
51661;DHT22;37741;49.748;8.490;2022-09-09T10:59:18;20.30;69.20
51661;DHT22;37741;49.748;8.490;2022-09-09T11:01:53;20.40;69.30
51661;DHT22;37741;49.748;8.490;2022-09-09T11:04:25;20.40;68.90
51661;DHT22;37741;49.748;8.490;2022-09-09T11:06:55;20.40;69.00
51661;DHT22;37741;49.748;8.490;2022-09-09T11:09:27;20.50;69.10
51661;DHT22;37741;49.748;8.490;2022-09-09T11:11:56;20.50;69.20
51661;DHT22;37741;49.748;8.490;2022-09-09T11:14:42;20.50;69.00
51661;DHT22;37741;49.748;8.490;2022-09-09T11:17:15;20.60;68.70
51661;DHT22;37741;49.748;8.490;2022-09-09T11:19:43;20.70;68.40
51661;DHT22;37741;49.748;8.490;2022-09-09T11:22:35;20.80;67.90
51661;DHT22;37741;49.748;8.490;2022-09-09T11:25:14;20.80;67.50
51661;DHT22;37741;49.748;8.490;2022-09-09T11:33:41;21.10;66.70
51661;DHT22;37741;49.748;8.490;2022-09-09T11:39:35;21.20;66.40
51661;DHT22;37741;49.748;8.490;2022-09-09T11:42:13;21.30;66.40
51661;DHT22;37741;49.748;8.490;2022-09-09T11:44:41;21.30;66.30
51661;DHT22;37741;49.748;8.490;2022-09-09T11:49:52;21.40;66.00
51661;DHT22;37741;49.748;8.490;2022-09-09T11:52:24;21.50;65.70
51661;DHT22;37741;49.748;8.490;2022-09-09T11:54:54;21.50;65.50
51661;DHT22;37741;49.748;8.490;2022-09-09T11:57:40;21.50;65.50
51661;DHT22;37741;49.748;8.490;2022-09-09T12:00:32;21.50;65.30
51661;DHT22;37741;49.748;8.490;2022-09-09T12:02:59;21.60;65.40
51661;DHT22;37741;49.748;8.490;2022-09-09T12:05:42;21.60;65.10
51661;DHT22;37741;49.748;8.490;2022-09-09T12:08:11;21.60;65.00
51661;DHT22;37741;49.748;8.490;2022-09-09T12:10:41;21.70;64.60
51661;DHT22;37741;49.748;8.490;2022-09-09T12:13:20;21.80;64.60
51661;DHT22;37741;49.748;8.490;2022-09-09T12:15:51;21.80;64.40
51661;DHT22;37741;49.748;8.490;2022-09-09T12:18:39;21.90;63.90
51661;DHT22;37741;49.748;8.490;2022-09-09T12:21:38;22.00;63.90
51661;DHT22;37741;49.748;8.490;2022-09-09T12:24:13;22.00;63.30
51661;DHT22;37741;49.748;8.490;2022-09-09T12:27:06;22.00;63.40
51661;DHT22;37741;49.748;8.490;2022-09-09T12:32:13;22.10;63.20
51661;DHT22;37741;49.748;8.490;2022-09-09T12:35:41;22.10;63.00
51661;DHT22;37741;49.748;8.490;2022-09-09T12:37:52;22.10;62.20
51661;DHT22;37741;49.748;8.490;2022-09-09T12:40:33;22.10;62.50
51661;DHT22;37741;49.748;8.490;2022-09-09T12:43:01;22.10;62.40
51661;DHT22;37741;49.748;8.490;2022-09-09T12:45:30;22.10;62.70
51661;DHT22;37741;49.748;8.490;2022-09-09T12:50:36;22.10;61.90
51661;DHT22;37741;49.748;8.490;2022-09-09T12:55:56;22.00;62.20
51661;DHT22;37741;49.748;8.490;2022-09-09T12:58:23;22.00;61.80
51661;DHT22;37741;49.748;8.490;2022-09-09T13:00:52;22.00;62.40
51661;DHT22;37741;49.748;8.490;2022-09-09T13:03:20;22.00;62.80
51661;DHT22;37741;49.748;8.490;2022-09-09T13:05:49;22.00;63.20
51661;DHT22;37741;49.748;8.490;2022-09-09T13:08:16;21.90;63.20
51661;DHT22;37741;49.748;8.490;2022-09-09T13:11:00;21.90;63.50
51661;DHT22;37741;49.748;8.490;2022-09-09T13:13:35;21.90;63.60
51661;DHT22;37741;49.748;8.490;2022-09-09T13:16:02;21.80;63.50
51661;DHT22;37741;49.748;8.490;2022-09-09T13:18:31;21.80;63.40
51661;DHT22;37741;49.748;8.490;2022-09-09T13:20:59;21.70;63.50
51661;DHT22;37741;49.748;8.490;2022-09-09T13:23:29;21.70;63.70
51661;DHT22;37741;49.748;8.490;2022-09-09T13:26:03;21.70;63.90
51661;DHT22;37741;49.748;8.490;2022-09-09T13:28:31;21.60;64.20
51661;DHT22;37741;49.748;8.490;2022-09-09T13:31:27;21.60;64.30
51661;DHT22;37741;49.748;8.490;2022-09-09T13:33:53;21.50;64.50
51661;DHT22;37741;49.748;8.490;2022-09-09T13:36:29;21.50;64.40
51661;DHT22;37741;49.748;8.490;2022-09-09T13:38:57;21.50;64.70
51661;DHT22;37741;49.748;8.490;2022-09-09T13:41:31;21.40;64.90
51661;DHT22;37741;49.748;8.490;2022-09-09T13:43:57;21.40;65.30
51661;DHT22;37741;49.748;8.490;2022-09-09T13:49:00;21.40;65.50
51661;DHT22;37741;49.748;8.490;2022-09-09T13:51:35;21.40;65.80
51661;DHT22;37741;49.748;8.490;2022-09-09T13:54:05;21.40;65.80
51661;DHT22;37741;49.748;8.490;2022-09-09T13:56:32;21.40;65.90
51661;DHT22;37741;49.748;8.490;2022-09-09T13:58:58;21.40;65.80
51661;DHT22;37741;49.748;8.490;2022-09-09T14:01:24;21.40;65.70
51661;DHT22;37741;49.748;8.490;2022-09-09T14:03:49;21.40;65.80
51661;DHT22;37741;49.748;8.490;2022-09-09T14:06:16;21.40;65.90
51661;DHT22;37741;49.748;8.490;2022-09-09T14:08:44;21.50;66.00
51661;DHT22;37741;49.748;8.490;2022-09-09T14:11:12;21.50;66.00
51661;DHT22;37741;49.748;8.490;2022-09-09T14:13:41;21.50;65.90
51661;DHT22;37741;49.748;8.490;2022-09-09T14:16:07;21.50;65.90
51661;DHT22;37741;49.748;8.490;2022-09-09T14:18:33;21.60;65.70
51661;DHT22;37741;49.748;8.490;2022-09-09T14:20:59;21.60;65.70
51661;DHT22;37741;49.748;8.490;2022-09-09T14:23:25;21.60;65.60
51661;DHT22;37741;49.748;8.490;2022-09-09T14:25:51;21.60;65.70
51661;DHT22;37741;49.748;8.490;2022-09-09T14:28:17;21.60;65.60
51661;DHT22;37741;49.748;8.490;2022-09-09T14:30:43;21.60;65.70
51661;DHT22;37741;49.748;8.490;2022-09-09T14:33:14;21.60;65.60
51661;DHT22;37741;49.748;8.490;2022-09-09T14:35:40;21.60;65.70
51661;DHT22;37741;49.748;8.490;2022-09-09T14:38:07;21.60;65.40
51661;DHT22;37741;49.748;8.490;2022-09-09T14:40:34;21.60;65.60
51661;DHT22;37741;49.748;8.490;2022-09-09T14:43:01;21.60;65.50
51661;DHT22;37741;49.748;8.490;2022-09-09T14:45:27;21.60;65.90
51661;DHT22;37741;49.748;8.490;2022-09-09T14:47:53;21.60;66.10
51661;DHT22;37741;49.748;8.490;2022-09-09T14:50:20;21.60;66.00
51661;DHT22;37741;49.748;8.490;2022-09-09T14:52:46;21.60;66.10
51661;DHT22;37741;49.748;8.490;2022-09-09T14:55:12;21.60;66.30
51661;DHT22;37741;49.748;8.490;2022-09-09T14:57:38;21.60;66.50
51661;DHT22;37741;49.748;8.490;2022-09-09T15:00:07;21.60;66.50
51661;DHT22;37741;49.748;8.490;2022-09-09T15:02:33;21.50;66.60
51661;DHT22;37741;49.748;8.490;2022-09-09T15:04:59;21.60;66.70
51661;DHT22;37741;49.748;8.490;2022-09-09T15:07:25;21.50;66.60
51661;DHT22;37741;49.748;8.490;2022-09-09T15:09:52;21.50;66.70
51661;DHT22;37741;49.748;8.490;2022-09-09T15:12:18;21.50;66.70
51661;DHT22;37741;49.748;8.490;2022-09-09T15:14:44;21.50;66.80
51661;DHT22;37741;49.748;8.490;2022-09-09T15:17:11;21.50;66.80
51661;DHT22;37741;49.748;8.490;2022-09-09T15:19:37;21.50;67.00
51661;DHT22;37741;49.748;8.490;2022-09-09T15:22:04;21.50;66.90
51661;DHT22;37741;49.748;8.490;2022-09-09T15:24:33;21.50;67.00
51661;DHT22;37741;49.748;8.490;2022-09-09T15:27:00;21.50;67.00
51661;DHT22;37741;49.748;8.490;2022-09-09T15:29:26;21.50;67.10
51661;DHT22;37741;49.748;8.490;2022-09-09T15:31:53;21.50;67.30
51661;DHT22;37741;49.748;8.490;2022-09-09T15:34:19;21.50;67.30
51661;DHT22;37741;49.748;8.490;2022-09-09T15:36:45;21.50;67.30
51661;DHT22;37741;49.748;8.490;2022-09-09T15:39:17;21.50;67.50
51661;DHT22;37741;49.748;8.490;2022-09-09T15:41:44;21.60;67.60
51661;DHT22;37741;49.748;8.490;2022-09-09T15:44:10;21.60;67.60
51661;DHT22;37741;49.748;8.490;2022-09-09T15:46:43;21.60;68.30
51661;DHT22;37741;49.748;8.490;2022-09-09T15:49:19;21.60;67.90
51661;DHT22;37741;49.748;8.490;2022-09-09T15:51:51;21.60;67.90
51661;DHT22;37741;49.748;8.490;2022-09-09T15:54:19;21.60;67.90
51661;DHT22;37741;49.748;8.490;2022-09-09T15:56:54;21.60;67.80
51661;DHT22;37741;49.748;8.490;2022-09-09T15:59:22;21.60;67.90
51661;DHT22;37741;49.748;8.490;2022-09-09T16:01:48;21.60;67.70
51661;DHT22;37741;49.748;8.490;2022-09-09T16:04:20;21.60;67.60
51661;DHT22;37741;49.748;8.490;2022-09-09T16:06:53;21.60;67.60
51661;DHT22;37741;49.748;8.490;2022-09-09T16:09:20;21.70;67.40
51661;DHT22;37741;49.748;8.490;2022-09-09T16:11:47;21.70;67.30
51661;DHT22;37741;49.748;8.490;2022-09-09T16:14:14;21.70;67.50
51661;DHT22;37741;49.748;8.490;2022-09-09T16:16:41;21.70;67.20
51661;DHT22;37741;49.748;8.490;2022-09-09T16:19:09;21.70;67.20
51661;DHT22;37741;49.748;8.490;2022-09-09T16:21:37;21.70;67.20
51661;DHT22;37741;49.748;8.490;2022-09-09T16:24:04;21.70;66.70
51661;DHT22;37741;49.748;8.490;2022-09-09T16:26:33;21.60;66.50
51661;DHT22;37741;49.748;8.490;2022-09-09T16:29:01;21.60;66.50
51661;DHT22;37741;49.748;8.490;2022-09-09T16:31:29;21.60;66.10
51661;DHT22;37741;49.748;8.490;2022-09-09T16:33:55;21.60;66.00
51661;DHT22;37741;49.748;8.490;2022-09-09T16:36:23;21.60;65.80
51661;DHT22;37741;49.748;8.490;2022-09-09T16:38:57;21.60;66.00
51661;DHT22;37741;49.748;8.490;2022-09-09T16:41:26;21.60;66.00
51661;DHT22;37741;49.748;8.490;2022-09-09T16:43:57;21.50;66.00
51661;DHT22;37741;49.748;8.490;2022-09-09T16:46:24;21.60;66.10
51661;DHT22;37741;49.748;8.490;2022-09-09T16:48:51;21.50;65.70
51661;DHT22;37741;49.748;8.490;2022-09-09T16:51:23;21.50;65.60
51661;DHT22;37741;49.748;8.490;2022-09-09T16:53:51;21.50;66.00
51661;DHT22;37741;49.748;8.490;2022-09-09T16:56:18;21.50;65.70
51661;DHT22;37741;49.748;8.490;2022-09-09T16:58:50;21.50;65.70
51661;DHT22;37741;49.748;8.490;2022-09-09T17:01:16;21.40;66.00
51661;DHT22;37741;49.748;8.490;2022-09-09T17:03:41;21.30;65.90
51661;DHT22;37741;49.748;8.490;2022-09-09T17:06:12;21.40;66.00
51661;DHT22;37741;49.748;8.490;2022-09-09T17:08:41;21.30;66.30
51661;DHT22;37741;49.748;8.490;2022-09-09T17:11:17;21.30;66.40
51661;DHT22;37741;49.748;8.490;2022-09-09T17:13:47;21.30;66.50
51661;DHT22;37741;49.748;8.490;2022-09-09T17:16:17;21.30;66.50
51661;DHT22;37741;49.748;8.490;2022-09-09T17:18:43;21.20;66.70
51661;DHT22;37741;49.748;8.490;2022-09-09T17:21:15;21.20;66.90
51661;DHT22;37741;49.748;8.490;2022-09-09T17:23:42;21.20;67.10
51661;DHT22;37741;49.748;8.490;2022-09-09T17:26:11;21.20;67.10
51661;DHT22;37741;49.748;8.490;2022-09-09T17:28:39;21.10;67.00
51661;DHT22;37741;49.748;8.490;2022-09-09T17:31:06;21.10;67.20
51661;DHT22;37741;49.748;8.490;2022-09-09T17:33:34;21.10;67.10
51661;DHT22;37741;49.748;8.490;2022-09-09T17:36:02;21.10;67.20
51661;DHT22;37741;49.748;8.490;2022-09-09T17:38:31;21.00;67.30
51661;DHT22;37741;49.748;8.490;2022-09-09T17:41:06;21.00;67.40
51661;DHT22;37741;49.748;8.490;2022-09-09T17:43:32;21.00;67.40